createdAt,value
2018-05-02T00:00:43.562Z,23.2
2018-05-02T00:01:33.923Z,23.2
2018-05-02T00:02:23.372Z,23.2
2018-05-02T00:03:14.071Z,23.2
2018-05-02T00:04:04.095Z,23.3
2018-05-02T00:04:54.446Z,23.3
2018-05-02T00:05:44.255Z,23.3
2018-05-02T00:06:34.647Z,23.4
2018-05-02T00:07:24.509Z,23.3
2018-05-02T00:08:14.246Z,23.3
2018-05-02T00:09:05.044Z,23.3
2018-05-02T00:09:54.524Z,23.3
2018-05-02T00:10:45.321Z,23.4
2018-05-02T00:11:34.991Z,23.4
2018-05-02T00:12:24.462Z,23.4
2018-05-02T00:13:15.084Z,23.5
2018-05-02T00:14:05.189Z,23.4
2018-05-02T00:14:55.087Z,23.4
2018-05-02T00:15:45.347Z,23.3
2018-05-02T00:16:35.338Z,23.4
2018-05-02T00:17:24.847Z,23.4
2018-05-02T00:18:15.982Z,23.4
2018-05-02T00:19:04.834Z,23.3
2018-05-02T00:19:54.777Z,23.3
2018-05-02T00:20:45.152Z,23.3
2018-05-02T00:21:35.466Z,23.3
2018-05-02T00:22:26.168Z,23.4
2018-05-02T00:23:15.517Z,23.3
2018-05-02T00:24:05.737Z,23.4
2018-05-02T00:24:55.456Z,23.4
2018-05-02T00:25:45.485Z,23.4
2018-05-02T00:26:36.394Z,23.4
2018-05-02T00:27:25.045Z,23.4
2018-05-02T00:28:14.927Z,23.4
2018-05-02T00:29:05.787Z,23.4
2018-05-02T00:29:55.243Z,23.4
2018-05-02T00:30:46.467Z,23.4
2018-05-02T00:31:36.308Z,23.4
2018-05-02T00:32:26.576Z,23.4
2018-05-02T00:33:14.941Z,23.4
2018-05-02T00:34:08.083Z,23.3
2018-05-02T00:34:55.930Z,23.4
2018-05-02T00:35:46.834Z,23.4
2018-05-02T00:36:36.933Z,23.3
2018-05-02T00:37:26.430Z,23.4
2018-05-02T00:38:15.997Z,23.4
2018-05-02T00:39:06.533Z,23.4
2018-05-02T00:39:57.447Z,23.4
2018-05-02T00:40:46.989Z,23.4
2018-05-02T00:41:37.449Z,23.4
2018-05-02T00:42:27.395Z,23.4
2018-05-02T00:43:17.412Z,23.4
2018-05-02T00:44:07.228Z,23.4
2018-05-02T00:44:57.857Z,23.4
2018-05-02T00:45:47.683Z,23.4
2018-05-02T00:46:37.043Z,23.4
2018-05-02T00:47:27.811Z,23.4
2018-05-02T00:48:17.872Z,23.4
2018-05-02T00:49:07.601Z,23.4
2018-05-02T00:49:57.461Z,23.4
2018-05-02T00:50:47.421Z,23.4
2018-05-02T00:51:36.943Z,23.5
2018-05-02T00:52:28.159Z,23.5
2018-05-02T00:53:17.687Z,23.5
2018-05-02T00:54:07.708Z,23.5
2018-05-02T00:54:58.034Z,23.4
2018-05-02T00:55:47.863Z,23.4
2018-05-02T00:56:37.830Z,23.5
2018-05-02T00:57:28.280Z,23.4
2018-05-02T00:58:18.020Z,23.4
2018-05-02T00:59:08.608Z,23.5
2018-05-02T00:59:58.159Z,23.5
2018-05-02T01:00:48.238Z,23.4
2018-05-02T01:01:38.593Z,23.4
2018-05-02T01:02:29.293Z,23.4
2018-05-02T01:03:18.768Z,23.4
2018-05-02T01:04:08.821Z,23.4
2018-05-02T01:04:58.545Z,23.4
2018-05-02T01:05:48.738Z,23.4
2018-05-02T01:06:37.820Z,23.5
2018-05-02T01:07:29.560Z,23.4
2018-05-02T01:08:18.232Z,23.4
2018-05-02T01:09:08.271Z,23.4
2018-05-02T01:09:59.178Z,23.4
2018-05-02T01:10:49.019Z,23.5
2018-05-02T01:11:39.648Z,23.4
2018-05-02T01:12:29.917Z,23.5
2018-05-02T01:13:19.137Z,23.5
2018-05-02T01:14:08.997Z,23.4
2018-05-02T01:14:59.857Z,23.4
2018-05-02T01:15:49.721Z,23.4
2018-05-02T01:16:39.720Z,23.4
2018-05-02T01:17:28.974Z,23.4
2018-05-02T01:18:19.610Z,23.5
2018-05-02T01:19:10.204Z,23.5
2018-05-02T01:20:00.254Z,23.4
2018-05-02T01:20:50.321Z,23.4
2018-05-02T01:21:40.096Z,23.4
2018-05-02T01:22:30.171Z,23.4
2018-05-02T01:23:20.501Z,23.4
2018-05-02T01:24:10.920Z,23.4
2018-05-02T01:25:00.088Z,23.4
2018-05-02T01:25:50.693Z,23.4
2018-05-02T01:26:40.505Z,23.5
2018-05-02T01:27:29.796Z,23.5
2018-05-02T01:28:20.228Z,23.5
2018-05-02T01:29:10.196Z,23.5
2018-05-02T01:30:00.533Z,23.4
2018-05-02T01:30:50.018Z,23.4
2018-05-02T01:31:40.945Z,23.4
2018-05-02T01:32:31.482Z,23.4
2018-05-02T01:33:21.004Z,23.4
2018-05-02T01:34:10.879Z,23.4
2018-05-02T01:35:01.147Z,23.4
2018-05-02T01:35:51.209Z,23.4
2018-05-02T01:36:41.536Z,23.4
2018-05-02T01:37:31.335Z,23.4
2018-05-02T01:38:21.400Z,23.4
2018-05-02T01:39:10.649Z,23.4
2018-05-02T01:40:00.958Z,23.4
2018-05-02T01:40:52.142Z,23.4
2018-05-02T01:41:41.415Z,23.4
2018-05-02T01:42:31.976Z,23.4
2018-05-02T01:43:22.373Z,23.4
2018-05-02T01:44:11.551Z,23.5
2018-05-02T01:45:02.202Z,23.5
2018-05-02T01:45:52.272Z,23.5
2018-05-02T01:46:42.412Z,23.5
2018-05-02T01:47:31.249Z,23.4
2018-05-02T01:48:21.912Z,23.4
2018-05-02T01:49:11.462Z,23.4
2018-05-02T01:50:02.043Z,23.4
2018-05-02T01:50:52.153Z,23.4
2018-05-02T01:51:42.492Z,23.4
2018-05-02T01:52:32.477Z,23.4
2018-05-02T01:53:22.587Z,23.4
2018-05-02T01:54:12.700Z,23.4
2018-05-02T01:55:01.897Z,23.4
2018-05-02T01:55:52.491Z,23.4
2018-05-02T01:56:42.808Z,23.4
2018-05-02T01:57:32.988Z,23.4
2018-05-02T01:58:22.970Z,23.4
2018-05-02T01:59:12.809Z,23.4
2018-05-02T02:00:02.082Z,23.4
2018-05-02T02:00:52.953Z,23.4
2018-05-02T02:01:43.072Z,23.4
2018-05-02T02:02:32.788Z,23.4
2018-05-02T02:03:23.430Z,23.4
2018-05-02T02:04:13.399Z,23.4
2018-05-02T02:05:04.062Z,23.4
2018-05-02T02:05:53.537Z,23.4
2018-05-02T02:06:44.231Z,23.4
2018-05-02T02:07:33.646Z,23.4
2018-05-02T02:08:23.748Z,23.4
2018-05-02T02:09:14.097Z,23.4
2018-05-02T02:10:03.584Z,23.4
2018-05-02T02:10:54.023Z,23.4
2018-05-02T02:11:43.483Z,23.4
2018-05-02T02:12:34.076Z,23.4
2018-05-02T02:13:23.604Z,23.4
2018-05-02T02:14:14.469Z,23.4
2018-05-02T02:15:03.987Z,23.4
2018-05-02T02:15:54.331Z,23.4
2018-05-02T02:16:44.149Z,23.4
2018-05-02T02:17:35.052Z,23.4
2018-05-02T02:18:24.045Z,23.4
2018-05-02T02:19:14.545Z,23.4
2018-05-02T02:20:05.199Z,23.4
2018-05-02T02:20:54.968Z,23.4
2018-05-02T02:21:44.006Z,23.4
2018-05-02T02:22:34.533Z,23.4
2018-05-02T02:23:24.606Z,23.4
2018-05-02T02:24:15.057Z,23.4
2018-05-02T02:25:05.389Z,23.4
2018-05-02T02:25:54.543Z,23.4
2018-05-02T02:26:45.453Z,23.4
2018-05-02T02:27:35.805Z,23.4
2018-05-02T02:28:24.456Z,23.4
2018-05-02T02:29:15.658Z,23.4
2018-05-02T02:30:05.437Z,23.4
2018-05-02T02:30:55.589Z,23.4
2018-05-02T02:31:45.350Z,23.4
2018-05-02T02:32:36.219Z,23.4
2018-05-02T02:33:25.425Z,23.4
2018-05-02T02:34:14.603Z,23.4
2018-05-02T02:35:05.543Z,23.4
2018-05-02T02:35:56.423Z,23.4
2018-05-02T02:36:45.691Z,23.4
2018-05-02T02:37:36.020Z,23.4
2018-05-02T02:38:26.395Z,23.4
2018-05-02T02:39:15.871Z,23.4
2018-05-02T02:40:06.866Z,23.4
2018-05-02T02:40:55.413Z,23.4
2018-05-02T02:41:46.350Z,23.4
2018-05-02T02:42:36.378Z,23.4
2018-05-02T02:43:26.222Z,23.4
2018-05-02T02:44:17.110Z,23.4
2018-05-02T02:45:06.655Z,23.4
2018-05-02T02:45:56.179Z,23.4
2018-05-02T02:46:46.514Z,23.4
2018-05-02T02:47:36.312Z,23.4
2018-05-02T02:48:26.989Z,23.4
2018-05-02T02:49:16.136Z,23.3
2018-05-02T02:50:06.253Z,23.4
2018-05-02T02:50:56.532Z,23.4
2018-05-02T02:51:47.265Z,23.4
2018-05-02T02:52:36.962Z,23.4
2018-05-02T02:53:26.501Z,23.4
2018-05-02T02:54:17.053Z,23.3
2018-05-02T02:55:07.384Z,23.3
2018-05-02T02:55:56.879Z,23.3
2018-05-02T02:56:47.568Z,23.3
2018-05-02T02:57:37.280Z,23.4
2018-05-02T02:58:27.629Z,23.4
2018-05-02T02:59:17.955Z,23.3
2018-05-02T03:00:07.789Z,23.4
2018-05-02T03:00:57.646Z,23.4
2018-05-02T03:01:47.336Z,23.4
2018-05-02T03:02:37.681Z,23.4
2018-05-02T03:03:28.062Z,23.4
2018-05-02T03:04:18.150Z,23.4
2018-05-02T03:05:07.923Z,23.4
2018-05-02T03:05:58.518Z,23.3
2018-05-02T03:06:47.722Z,23.3
2018-05-02T03:07:37.184Z,23.4
2018-05-02T03:08:28.437Z,23.3
2018-05-02T03:09:18.547Z,23.3
2018-05-02T03:10:08.539Z,23.3
2018-05-02T03:10:58.365Z,23.3
2018-05-02T03:11:48.680Z,23.3
2018-05-02T03:12:38.485Z,23.3
2018-05-02T03:13:28.781Z,23.3
2018-05-02T03:14:18.349Z,23.3
2018-05-02T03:15:08.376Z,23.3
2018-05-02T03:15:58.968Z,23.3
2018-05-02T03:16:49.391Z,23.3
2018-05-02T03:17:39.107Z,23.3
2018-05-02T03:18:27.757Z,23.3
2018-05-02T03:19:19.770Z,23.3
2018-05-02T03:20:09.875Z,23.3
2018-05-02T03:20:59.088Z,23.3
2018-05-02T03:21:49.965Z,23.3
2018-05-02T03:22:38.911Z,23.3
2018-05-02T03:23:29.317Z,23.3
2018-05-02T03:24:19.941Z,23.3
2018-05-02T03:25:09.380Z,23.3
2018-05-02T03:25:59.867Z,23.3
2018-05-02T03:26:50.479Z,23.3
2018-05-02T03:27:40.183Z,23.3
2018-05-02T03:28:29.904Z,23.3
2018-05-02T03:29:20.266Z,23.3
2018-05-02T03:30:09.398Z,23.3
2018-05-02T03:31:00.632Z,23.3
2018-05-02T03:31:49.962Z,23.3
2018-05-02T03:32:40.294Z,23.3
2018-05-02T03:33:30.328Z,23.3
2018-05-02T03:34:20.632Z,23.3
2018-05-02T03:35:10.432Z,23.3
2018-05-02T03:36:00.049Z,23.3
2018-05-02T03:36:49.554Z,23.3
2018-05-02T03:37:40.455Z,23.3
2018-05-02T13:28:45.595Z,25.1
2018-05-02T13:29:35.389Z,25.2
2018-05-02T13:30:26.020Z,25.2
2018-05-02T13:31:15.240Z,25.1
2018-05-02T13:32:05.550Z,25.1
2018-05-02T13:32:55.085Z,25.1
2018-05-02T13:33:46.012Z,25.1
2018-05-02T13:34:35.755Z,25.1
2018-05-02T13:35:25.556Z,25.1
2018-05-02T13:36:15.915Z,25.1
2018-05-02T13:37:06.026Z,25.1
2018-05-02T13:37:56.554Z,25.2
2018-05-02T13:38:46.100Z,25.2
2018-05-02T13:39:37.242Z,25.2
2018-05-02T13:40:26.555Z,25.2
2018-05-02T13:41:15.991Z,25.2
2018-05-02T13:42:05.829Z,25.1
2018-05-02T13:42:57.047Z,25.1
2018-05-02T13:43:47.126Z,25.1
2018-05-02T13:44:36.982Z,25.1
2018-05-02T13:45:26.625Z,25.1
2018-05-02T13:46:16.658Z,25.1
2018-05-02T13:47:06.780Z,25.2
2018-05-02T13:47:56.807Z,25.1
2018-05-02T13:48:47.881Z,25.1
2018-05-02T13:49:37.532Z,25.1
2018-05-02T13:50:27.285Z,25.1
2018-05-02T13:51:17.164Z,25.1
2018-05-02T13:52:07.728Z,25.1
2018-05-02T13:52:56.385Z,25.1
2018-05-02T13:53:47.335Z,25.1
2018-05-02T13:54:36.330Z,25.1
2018-05-02T13:55:27.793Z,25.1
2018-05-02T13:56:17.747Z,25.1
2018-05-02T13:57:07.656Z,25.1
2018-05-02T13:57:57.695Z,25.1
2018-05-02T13:58:47.819Z,25.1
2018-05-02T13:59:38.029Z,25
2018-05-02T14:00:28.406Z,25.1
2018-05-02T14:01:18.022Z,25.1
2018-05-02T14:02:08.000Z,25
2018-05-02T14:02:57.746Z,25
2018-05-02T14:03:48.368Z,25.1
2018-05-02T14:04:38.516Z,25
2018-05-02T14:05:28.848Z,25
2018-05-02T14:06:18.801Z,24.9
2018-05-02T14:07:08.139Z,24.9
2018-05-02T14:07:58.428Z,24.9
2018-05-02T14:08:48.549Z,24.9
2018-05-02T14:09:38.664Z,24.9
2018-05-02T14:10:29.508Z,24.9
2018-05-02T14:11:18.665Z,24.9
2018-05-02T14:12:09.058Z,24.9
2018-05-02T14:12:59.112Z,24.9
2018-05-02T14:13:48.563Z,24.9
2018-05-02T14:14:39.769Z,24.9
2018-05-02T14:15:29.315Z,24.8
2018-05-02T14:16:18.566Z,24.9
2018-05-02T14:17:09.446Z,24.8
2018-05-02T14:17:59.214Z,24.8
2018-05-02T14:18:49.546Z,24.8
2018-05-02T14:19:39.335Z,24.8
2018-05-02T14:20:29.117Z,24.8
2018-05-02T14:21:19.760Z,24.8
2018-05-02T14:22:10.329Z,24.8
2018-05-02T14:23:00.119Z,24.8
2018-05-02T14:23:49.342Z,24.8
2018-05-02T14:24:40.368Z,24.8
2018-05-02T14:25:30.222Z,24.8
2018-05-02T14:26:20.119Z,24.8
2018-05-02T14:27:09.910Z,24.8
2018-05-02T14:28:00.543Z,24.8
2018-05-02T14:28:50.061Z,24.8
2018-05-02T14:29:40.434Z,24.8
2018-05-02T14:30:30.189Z,24.7
2018-05-02T14:31:19.462Z,24.7
2018-05-02T14:32:10.188Z,24.7
2018-05-02T14:33:01.501Z,24.7
2018-05-02T14:33:50.714Z,24.7
2018-05-02T14:34:40.464Z,24.6
2018-05-02T14:35:30.294Z,24.7
2018-05-02T14:36:21.164Z,24.6
2018-05-02T14:37:10.784Z,24.6
2018-05-02T14:38:01.047Z,24.6
2018-05-02T14:38:51.078Z,24.6
2018-05-02T14:39:41.268Z,24.6
2018-05-02T14:40:31.286Z,24.5
2018-05-02T14:41:21.313Z,24.5
2018-05-02T14:42:11.396Z,24.6
2018-05-02T14:43:02.031Z,24.5
2018-05-02T14:43:51.783Z,24.5
2018-05-02T14:44:40.808Z,24.4
2018-05-02T14:45:32.186Z,24.5
2018-05-02T14:46:21.701Z,24.4
2018-05-02T14:47:12.130Z,24.5
2018-05-02T14:48:01.876Z,24.5
2018-05-02T14:48:51.908Z,24.5
2018-05-02T14:49:41.975Z,24.4
2018-05-02T14:50:32.043Z,24.4
2018-05-02T14:51:22.649Z,24.4
2018-05-02T14:52:10.770Z,24.4
2018-05-02T14:53:02.302Z,24.4
2018-05-02T14:53:52.053Z,24.5
2018-05-02T14:54:42.552Z,24.5
2018-05-02T14:55:32.951Z,24.5
2018-05-02T14:56:23.011Z,24.4
2018-05-02T14:57:12.837Z,24.4
2018-05-02T14:58:03.301Z,24.4
2018-05-02T14:58:52.944Z,24.4
2018-05-02T14:59:43.292Z,24.4
2018-05-02T15:00:32.839Z,24.4
2018-05-02T15:01:23.416Z,24.4
2018-05-02T15:02:15.356Z,24.4
2018-05-02T15:03:03.346Z,24.4
2018-05-02T15:03:53.079Z,24.4
2018-05-02T15:04:43.365Z,24.4
2018-05-02T15:05:33.469Z,24.4
2018-05-02T15:06:23.242Z,24.4
2018-05-02T15:07:13.909Z,24.5
2018-05-02T15:08:03.473Z,24.4
2018-05-02T15:08:53.720Z,24.4
2018-05-02T15:09:44.100Z,24.4
2018-05-02T15:10:34.111Z,24.4
2018-05-02T15:11:23.636Z,24.4
2018-05-02T15:12:14.000Z,24.4
2018-05-02T15:13:04.331Z,24.4
2018-05-02T15:13:52.719Z,24.4
2018-05-02T15:14:44.479Z,24.4
2018-05-02T15:15:33.776Z,24.4
2018-05-02T15:16:23.779Z,24.4
2018-05-02T15:17:14.108Z,24.5
2018-05-02T15:18:05.429Z,24.4
2018-05-02T15:18:54.779Z,24.4
2018-05-02T15:19:44.582Z,24.4
2018-05-02T15:20:34.703Z,24.4
2018-05-02T15:21:24.160Z,24.4
2018-05-02T15:22:14.804Z,24.4
2018-05-02T15:23:04.859Z,24.5
2018-05-02T15:23:54.138Z,24.5
2018-05-02T15:24:45.296Z,24.4
2018-05-02T15:25:33.953Z,24.4
2018-05-02T15:26:24.860Z,24.4
2018-05-02T15:27:15.175Z,24.4
2018-05-02T15:28:05.404Z,24.4
2018-05-02T15:28:55.288Z,24.4
2018-05-02T15:29:45.120Z,24.4
2018-05-02T15:30:35.334Z,24.4
2018-05-02T15:31:25.570Z,24.4
2018-05-02T15:32:15.917Z,24.4
2018-05-02T15:33:05.112Z,24.4
2018-05-02T15:33:55.964Z,24.4
2018-05-02T15:34:44.081Z,24.4
2018-05-02T15:35:36.013Z,24.4
2018-05-02T15:36:25.029Z,24.4
2018-05-02T15:37:15.937Z,24.4
2018-05-02T15:38:06.059Z,24.4
2018-05-02T15:38:56.345Z,24.4
2018-05-02T15:39:45.880Z,24.4
2018-05-02T15:40:35.386Z,24.4
2018-05-02T15:41:26.045Z,24.4
2018-05-02T15:42:15.294Z,24.4
2018-05-02T15:43:06.386Z,24.5
2018-05-02T15:43:56.577Z,24.5
2018-05-02T15:44:46.225Z,24.5
2018-05-02T15:45:36.048Z,24.5
2018-05-02T15:46:26.731Z,24.5
2018-05-02T15:47:16.475Z,24.4
2018-05-02T15:48:06.950Z,24.4
2018-05-02T15:48:56.933Z,24.4
2018-05-02T15:49:46.381Z,24.4
2018-05-02T15:50:36.774Z,24.4
2018-05-02T15:51:27.420Z,24.4
2018-05-02T15:52:16.377Z,24.4
2018-05-02T15:53:07.460Z,24.5
2018-05-02T15:53:57.049Z,24.4
2018-05-02T15:54:47.133Z,24.4
2018-05-02T15:55:36.525Z,24.4
2018-05-02T15:56:26.472Z,24.4
2018-05-02T15:57:17.284Z,24.4
2018-05-02T15:58:09.630Z,24.4
2018-05-02T15:58:57.680Z,24.4
2018-05-02T15:59:47.735Z,24.4
2018-05-02T16:00:38.037Z,24.4
2018-05-02T16:01:28.141Z,24.5
2018-05-02T16:02:17.913Z,24.4
2018-05-02T16:03:08.023Z,24.4
2018-05-02T16:03:58.189Z,24.4
2018-05-02T16:04:47.840Z,24.4
2018-05-02T16:05:37.909Z,24.4
2018-05-02T16:06:27.991Z,24.4
2018-05-02T16:07:16.992Z,24.4
2018-05-02T16:08:07.850Z,24.4
2018-05-02T16:08:58.215Z,24.4
2018-05-02T16:09:48.835Z,24.4
2018-05-02T16:10:38.782Z,24.3
2018-05-02T16:11:28.495Z,24.4
2018-05-02T16:12:18.180Z,24.4
2018-05-02T16:13:08.562Z,24.3
2018-05-02T16:13:57.722Z,24.3
2018-05-02T16:14:49.017Z,24.3
2018-05-02T16:15:38.476Z,24.3
2018-05-02T16:16:30.118Z,24.4
2018-05-02T16:17:18.890Z,24.3
2018-05-02T16:18:09.006Z,24.3
2018-05-02T16:18:58.425Z,24.3
2018-05-02T16:19:48.742Z,24.4
2018-05-02T16:20:39.103Z,24.4
2018-05-02T16:21:29.693Z,24.4
2018-05-02T16:22:19.784Z,24.4
2018-05-02T16:23:09.350Z,24.4
2018-05-02T16:23:59.048Z,24.4
2018-05-02T16:24:50.047Z,24.4
2018-05-02T16:25:39.236Z,24.4
2018-05-02T16:26:29.001Z,24.4
2018-05-02T16:27:19.484Z,24.4
2018-05-02T16:28:10.221Z,24.4
2018-05-02T16:28:59.334Z,24.4
2018-05-02T16:29:50.074Z,24.4
2018-05-02T16:30:40.414Z,24.4
2018-05-02T16:31:30.209Z,24.4
2018-05-02T16:32:20.045Z,24.4
2018-05-02T16:33:10.675Z,24.4
2018-05-02T16:34:00.402Z,24.4
2018-05-02T16:34:50.191Z,24.4
2018-05-02T16:35:40.281Z,24.4
2018-05-02T16:36:30.376Z,24.4
2018-05-02T16:37:19.579Z,24.4
2018-05-02T16:38:10.221Z,24.4
2018-05-02T16:39:00.584Z,24.4
2018-05-02T16:39:49.826Z,24.4
2018-05-02T16:40:41.282Z,24.4
2018-05-02T16:41:31.102Z,24.4
2018-05-02T16:42:20.783Z,24.4
2018-05-02T16:43:10.033Z,24.4
2018-05-02T16:44:00.106Z,24.4
2018-05-02T16:44:51.285Z,24.4
2018-05-02T16:45:41.074Z,24.4
2018-05-02T16:46:31.122Z,24.3
2018-05-02T16:47:20.661Z,24.4
2018-05-02T16:48:11.616Z,24.4
2018-05-02T16:49:01.035Z,24.4
2018-05-02T16:49:51.095Z,24.3
2018-05-02T16:50:41.735Z,24.3
2018-05-02T16:51:31.245Z,24.3
2018-05-02T16:52:21.850Z,24.3
2018-05-02T16:53:10.810Z,24.3
2018-05-02T16:54:01.423Z,24.3
2018-05-02T16:54:50.676Z,24.3
2018-05-02T16:55:41.532Z,24.2
2018-05-02T16:56:31.857Z,24.2
2018-05-02T16:57:22.032Z,24.2
2018-05-02T16:58:11.805Z,24.1
2018-05-02T16:59:02.354Z,24.2
2018-05-02T16:59:52.474Z,24.1
2018-05-02T17:00:42.790Z,24.1
2018-05-02T17:01:32.567Z,24.1
2018-05-02T17:02:22.590Z,24.1
2018-05-02T17:03:12.521Z,24
2018-05-02T17:04:03.138Z,24
2018-05-02T17:04:53.150Z,24
2018-05-02T17:05:42.331Z,24.1
2018-05-02T17:06:31.815Z,24
2018-05-02T17:07:22.472Z,24
2018-05-02T17:08:13.077Z,24
2018-05-02T17:09:02.391Z,23.9
2018-05-02T17:09:53.076Z,23.9
2018-05-02T17:10:43.529Z,23.9
2018-05-02T17:11:33.059Z,23.9
2018-05-02T17:12:22.916Z,23.9
2018-05-02T17:13:12.930Z,23.9
2018-05-02T17:14:03.578Z,23.9
2018-05-02T17:14:53.073Z,23.9
2018-05-02T17:15:42.831Z,23.9
2018-05-02T17:16:33.276Z,23.9
2018-05-02T17:17:24.083Z,23.9
2018-05-02T17:18:14.074Z,23.9
2018-05-02T17:19:04.291Z,23.9
2018-05-02T17:19:53.990Z,23.9
2018-05-02T17:20:43.475Z,23.9
2018-05-02T17:21:34.417Z,23.9
2018-05-02T17:22:26.024Z,23.9
2018-05-02T17:23:13.698Z,23.9
2018-05-02T17:24:03.282Z,23.9
2018-05-02T17:24:54.127Z,23.9
2018-05-02T17:25:43.875Z,23.9
2018-05-02T17:26:34.760Z,23.9
2018-05-02T17:27:24.303Z,23.9
2018-05-02T17:28:14.061Z,23.9
2018-05-02T17:29:03.867Z,23.9
2018-05-02T17:29:54.532Z,23.8
2018-05-02T17:30:44.066Z,23.8
2018-05-02T17:31:34.384Z,23.8
2018-05-02T17:32:24.178Z,23.8
2018-05-02T17:33:14.998Z,23.8
2018-05-02T17:34:04.265Z,23.8
2018-05-02T17:34:54.912Z,23.8
2018-05-02T17:35:44.944Z,23.8
2018-05-02T17:36:35.526Z,23.8
2018-05-02T17:37:25.665Z,23.7
2018-05-02T17:38:15.702Z,23.7
2018-05-02T17:39:05.732Z,23.7
2018-05-02T17:39:55.558Z,23.7
2018-05-02T17:40:45.418Z,23.8
2018-05-02T17:41:35.203Z,23.7
2018-05-02T17:42:24.883Z,23.8
2018-05-02T17:43:15.877Z,23.8
2018-05-02T17:44:05.332Z,23.7
2018-05-02T17:44:55.357Z,23.8
2018-05-02T17:45:46.328Z,23.7
2018-05-02T17:46:36.921Z,23.8
2018-05-02T17:47:25.239Z,23.7
2018-05-02T17:48:14.001Z,23.7
2018-05-02T17:49:04.953Z,23.7
2018-05-02T17:49:55.241Z,23.7
2018-05-02T17:50:45.142Z,23.7
2018-05-02T17:51:34.478Z,23.8
2018-05-02T17:52:26.529Z,23.8
2018-05-02T17:53:15.525Z,23.8
2018-05-02T17:54:05.612Z,23.8
2018-05-02T17:54:55.656Z,23.8
2018-05-02T17:55:45.501Z,23.8
2018-05-02T17:56:35.759Z,23.8
2018-05-02T17:57:26.386Z,23.8
2018-05-02T17:58:16.427Z,23.8
2018-05-02T17:59:06.738Z,23.8
2018-05-02T17:59:57.044Z,23.7
2018-05-02T18:00:46.862Z,23.7
2018-05-02T18:01:37.289Z,23.7
2018-05-02T18:02:27.252Z,23.8
2018-05-02T18:03:17.091Z,23.7
2018-05-02T18:04:07.398Z,23.7
2018-05-02T18:04:56.929Z,23.7
2018-05-02T18:05:47.854Z,23.7
2018-05-02T18:06:37.271Z,23.6
2018-05-02T18:07:27.361Z,23.6
2018-05-02T18:08:16.885Z,23.6
2018-05-02T18:09:07.833Z,23.6
2018-05-02T18:09:57.797Z,23.6
2018-05-02T18:10:47.939Z,23.6
2018-05-02T18:11:38.235Z,23.6
2018-05-02T18:12:27.464Z,23.6
2018-05-02T18:13:18.364Z,23.6
2018-05-02T18:14:07.396Z,23.6
2018-05-02T18:14:57.979Z,23.6
2018-05-02T18:15:48.051Z,23.6
2018-05-02T18:16:38.621Z,23.6
2018-05-02T18:17:28.780Z,23.6
2018-05-02T18:18:18.757Z,23.6
2018-05-02T18:19:08.515Z,23.6
2018-05-02T18:19:58.671Z,23.6
2018-05-02T18:20:48.426Z,23.6
2018-05-02T18:21:39.480Z,23.6
2018-05-02T18:22:28.820Z,23.6
2018-05-02T18:23:18.034Z,23.6
2018-05-02T18:24:08.653Z,23.6
2018-05-02T18:24:58.249Z,23.6
2018-05-02T18:25:48.535Z,23.7
2018-05-02T18:26:37.537Z,23.7
2018-05-02T18:27:28.178Z,23.7
2018-05-02T18:28:18.959Z,23.7
2018-05-02T18:29:08.867Z,23.8
2018-05-02T18:29:58.964Z,23.6
2018-05-02T18:30:48.679Z,23.6
2018-05-02T18:31:38.761Z,23.6
2018-05-02T18:32:28.959Z,23.7
2018-05-02T18:33:18.947Z,23.7
2018-05-02T18:34:09.548Z,23.6
2018-05-02T18:34:59.790Z,23.7
2018-05-02T18:35:49.304Z,23.7
2018-05-02T18:36:40.929Z,23.7
2018-05-02T18:37:30.228Z,23.7
2018-05-02T18:38:19.482Z,23.7
2018-05-02T18:39:10.076Z,23.8
2018-05-02T18:40:00.108Z,23.7
2018-05-02T18:40:50.039Z,23.7
2018-05-02T18:41:40.018Z,23.8
2018-05-02T18:42:30.072Z,23.8
2018-05-02T18:43:20.426Z,23.8
2018-05-02T18:44:10.164Z,23.7
2018-05-02T18:45:00.518Z,23.6
2018-05-02T18:45:50.640Z,23.6
2018-05-02T18:46:40.503Z,23.7
2018-05-02T18:47:30.439Z,23.7
2018-05-02T18:48:20.497Z,23.7
2018-05-02T18:49:10.305Z,23.7
2018-05-02T18:49:59.497Z,23.7
2018-05-02T18:50:49.448Z,23.6
2018-05-02T18:51:40.506Z,23.6
2018-05-02T18:52:30.609Z,23.6
2018-05-02T18:53:21.377Z,23.7
2018-05-02T18:54:11.287Z,23.7
2018-05-02T18:55:00.502Z,23.7
2018-05-02T18:55:50.247Z,23.7
2018-05-02T18:56:41.565Z,23.6
2018-05-02T18:57:30.977Z,23.7
2018-05-02T18:58:21.599Z,23.6
2018-05-02T18:59:10.830Z,23.7
2018-05-02T19:00:01.754Z,23.7
2018-05-02T19:00:52.067Z,23.7
2018-05-02T19:01:41.912Z,23.7
2018-05-02T19:02:31.416Z,23.7
2018-05-02T19:03:21.595Z,23.7
2018-05-02T19:04:12.076Z,23.8
2018-05-02T19:05:01.289Z,23.7
2018-05-02T19:05:51.929Z,23.7
2018-05-02T19:06:42.289Z,23.7
2018-05-02T19:07:32.325Z,23.7
2018-05-02T19:08:22.074Z,23.6
2018-05-02T19:09:12.226Z,23.7
2018-05-02T19:10:02.246Z,23.6
2018-05-02T19:10:52.278Z,23.7
2018-05-02T19:11:42.580Z,23.7
2018-05-02T19:12:32.665Z,23.6
2018-05-02T19:13:22.738Z,23.6
2018-05-02T19:14:12.276Z,23.6
2018-05-02T19:15:02.605Z,23.6
2018-05-02T19:15:52.137Z,23.6
2018-05-02T19:16:42.731Z,23.6
2018-05-02T19:17:33.336Z,23.6
2018-05-02T19:18:22.802Z,23.6
2018-05-02T19:19:13.444Z,23.6
2018-05-02T19:20:02.948Z,23.6
2018-05-02T19:20:53.641Z,23.6
2018-05-02T19:21:42.575Z,23.6
2018-05-02T19:22:33.735Z,23.6
2018-05-02T19:23:23.773Z,23.6
2018-05-02T19:24:13.100Z,23.6
2018-05-02T19:25:03.910Z,23.6
2018-05-02T19:25:54.015Z,23.6
2018-05-02T19:26:44.063Z,23.6
2018-05-02T19:27:33.836Z,23.6
2018-05-02T19:28:23.652Z,23.6
2018-05-02T19:29:13.636Z,23.6
2018-05-02T19:30:04.379Z,23.6
2018-05-02T19:30:53.804Z,23.6
2018-05-02T19:31:43.572Z,23.6
2018-05-02T19:32:34.008Z,23.6
2018-05-02T19:33:23.792Z,23.6
2018-05-02T19:34:14.178Z,23.6
2018-05-02T19:35:03.815Z,23.6
2018-05-02T19:35:54.210Z,23.6
2018-05-02T19:36:44.381Z,23.5
2018-05-02T19:37:34.629Z,23.5
2018-05-02T19:38:24.137Z,23.6
2018-05-02T19:39:12.755Z,23.6
2018-05-02T19:40:04.558Z,23.6
2018-05-02T19:40:54.637Z,23.6
2018-05-02T19:41:44.118Z,23.6
2018-05-02T19:42:34.129Z,23.5
2018-05-02T19:43:24.464Z,23.5
2018-05-02T19:44:15.540Z,23.5
2018-05-02T19:45:05.036Z,23.5
2018-05-02T19:45:54.967Z,23.5
2018-05-02T19:46:45.046Z,23.5
2018-05-02T19:47:34.841Z,23.4
2018-05-02T19:48:25.786Z,23.5
2018-05-02T19:49:15.249Z,23.5
2018-05-02T19:50:04.776Z,23.6
2018-05-02T19:50:55.081Z,23.6
2018-05-02T19:51:45.749Z,23.6
2018-05-02T19:52:35.501Z,23.6
2018-05-02T19:53:25.592Z,23.6
2018-05-02T19:54:15.908Z,23.6
2018-05-02T19:55:05.715Z,23.6
2018-05-02T19:55:56.095Z,23.6
2018-05-02T19:56:45.809Z,23.6
2018-05-02T19:57:36.263Z,23.6
2018-05-02T19:58:25.708Z,23.5
2018-05-02T19:59:15.985Z,23.6
2018-05-02T20:00:05.238Z,23.5
2018-05-02T20:00:56.179Z,23.4
2018-05-02T20:01:45.615Z,23.5
2018-05-02T20:02:36.017Z,23.5
2018-05-02T20:03:25.832Z,23.5
2018-05-02T20:04:16.950Z,23.4
2018-05-02T20:05:06.481Z,23.4
2018-05-02T20:05:56.807Z,23.5
2018-05-02T20:06:46.026Z,23.5
2018-05-02T20:07:36.726Z,23.5
2018-05-02T20:08:26.159Z,23.5
2018-05-02T20:09:16.500Z,23.5
2018-05-02T20:10:07.188Z,23.4
2018-05-02T20:10:57.578Z,23.5
2018-05-02T20:11:47.406Z,23.5
2018-05-02T20:12:37.067Z,23.4
2018-05-02T20:13:26.854Z,23.5
2018-05-02T20:14:16.672Z,23.4
2018-05-02T20:15:06.770Z,23.4
2018-05-02T20:15:57.310Z,23.4
2018-05-02T20:16:47.114Z,23.5
2018-05-02T20:17:38.081Z,23.4
2018-05-02T20:18:28.075Z,23.4
2018-05-02T20:19:18.632Z,23.4
2018-05-02T20:20:07.076Z,23.4
2018-05-02T20:20:57.967Z,23.3
2018-05-02T20:21:48.019Z,23.3
2018-05-02T20:22:38.444Z,23.4
2018-05-02T20:23:28.165Z,23.4
2018-05-02T20:24:17.949Z,23.4
2018-05-02T20:25:07.990Z,23.4
2018-05-02T20:25:56.919Z,23.4
2018-05-02T20:26:48.701Z,23.4
2018-05-02T20:27:38.504Z,23.3
2018-05-02T20:28:27.678Z,23.3
2018-05-02T20:29:18.700Z,23.3
2018-05-02T20:30:07.879Z,23.4
2018-05-02T20:30:59.288Z,23.3
2018-05-02T20:31:47.953Z,23.3
2018-05-02T20:32:38.533Z,23.3
2018-05-02T20:33:28.622Z,23.3
2018-05-02T20:34:17.672Z,23.3
2018-05-02T20:35:08.817Z,23.3
2018-05-02T20:35:58.324Z,23.4
2018-05-02T20:36:48.375Z,23.3
2018-05-02T20:37:39.286Z,23.3
2018-05-02T20:38:28.780Z,23.3
2018-05-02T20:39:19.158Z,23.3
2018-05-02T20:40:09.782Z,23.3
2018-05-02T20:40:59.225Z,23.2
2018-05-02T20:41:49.557Z,23.2
2018-05-02T20:42:39.974Z,23.2
2018-05-02T20:43:29.773Z,23.3
2018-05-02T20:44:19.546Z,23.3
2018-05-02T20:45:09.858Z,23.2
2018-05-02T20:46:00.013Z,23.2
2018-05-02T20:46:49.167Z,23.3
2018-05-02T20:47:40.266Z,23.3
2018-05-02T20:48:29.314Z,23.3
2018-05-02T20:49:20.223Z,23.3
2018-05-02T20:50:09.753Z,23.3
2018-05-02T20:50:59.537Z,23.3
2018-05-02T20:51:49.793Z,23.3
2018-05-02T20:52:39.832Z,23.3
2018-05-02T20:53:29.332Z,23.3
2018-05-02T20:54:20.880Z,23.3
2018-05-02T20:55:12.263Z,23.3
2018-05-02T20:56:00.746Z,23.3
2018-05-02T20:56:49.836Z,23.3
2018-05-02T20:57:40.617Z,23.3